sensor_id;sensor_type;location;lat;lon;timestamp;pressure;altitude;pressure_sealevel;temperature;humidity
71567;BME280;59403;47.456;19.120;2023-04-02T00:01:36;99384.37;;;9.82;87.05
71567;BME280;59403;47.456;19.120;2023-04-02T00:04:10;99384.91;;;9.78;86.93
71567;BME280;59403;47.456;19.120;2023-04-02T00:06:39;99388.69;;;9.83;86.65
71567;BME280;59403;47.456;19.120;2023-04-02T00:09:34;99381.78;;;9.74;86.94
71567;BME280;59403;47.456;19.120;2023-04-02T00:12:13;99385.66;;;9.64;87.41
71567;BME280;59403;47.456;19.120;2023-04-02T00:14:46;99384.06;;;9.55;88.28
71567;BME280;59403;47.456;19.120;2023-04-02T00:17:14;99384.47;;;9.44;89.58
71567;BME280;59403;47.456;19.120;2023-04-02T00:19:44;99386.81;;;9.39;89.67
71567;BME280;59403;47.456;19.120;2023-04-02T00:22:15;99388.00;;;9.36;90.34
71567;BME280;59403;47.456;19.120;2023-04-02T00:24:44;99385.81;;;9.40;89.48
71567;BME280;59403;47.456;19.120;2023-04-02T00:27:13;99383.94;;;9.48;89.04
71567;BME280;59403;47.456;19.120;2023-04-02T00:29:45;99383.13;;;9.48;89.35
71567;BME280;59403;47.456;19.120;2023-04-02T00:32:17;99389.00;;;9.58;88.71
71567;BME280;59403;47.456;19.120;2023-04-02T00:34:47;99380.88;;;9.59;88.35
71567;BME280;59403;47.456;19.120;2023-04-02T00:37:17;99386.03;;;9.61;88.62
71567;BME280;59403;47.456;19.120;2023-04-02T00:39:50;99383.72;;;9.58;89.32
71567;BME280;59403;47.456;19.120;2023-04-02T00:42:19;99384.19;;;9.61;88.55
71567;BME280;59403;47.456;19.120;2023-04-02T00:44:48;99378.38;;;9.66;88.60
71567;BME280;59403;47.456;19.120;2023-04-02T00:47:18;99387.56;;;9.78;87.90
71567;BME280;59403;47.456;19.120;2023-04-02T00:49:49;99386.91;;;9.76;87.62
71567;BME280;59403;47.456;19.120;2023-04-02T00:52:20;99386.72;;;9.77;87.84
71567;BME280;59403;47.456;19.120;2023-04-02T00:54:57;99387.72;;;9.76;87.80
71567;BME280;59403;47.456;19.120;2023-04-02T00:57:26;99397.47;;;9.76;88.06
71567;BME280;59403;47.456;19.120;2023-04-02T00:59:57;99401.91;;;9.83;87.08
71567;BME280;59403;47.456;19.120;2023-04-02T01:05:37;99388.97;;;9.88;86.68
71567;BME280;59403;47.456;19.120;2023-04-02T01:22:06;99401.94;;;9.75;87.60
71567;BME280;59403;47.456;19.120;2023-04-02T01:25:51;99403.41;;;9.78;87.48
71567;BME280;59403;47.456;19.120;2023-04-02T01:28:51;99396.59;;;9.83;87.25
71567;BME280;59403;47.456;19.120;2023-04-02T01:34:54;99402.03;;;9.82;87.08
71567;BME280;59403;47.456;19.120;2023-04-02T02:44:38;99432.25;;;9.65;89.65
71567;BME280;59403;47.456;19.120;2023-04-02T02:48:00;99432.88;;;9.67;89.24
71567;BME280;59403;47.456;19.120;2023-04-02T02:51:16;99432.06;;;9.66;89.42
71567;BME280;59403;47.456;19.120;2023-04-02T03:28:26;99425.03;;;9.59;90.26
71567;BME280;59403;47.456;19.120;2023-04-02T04:15:23;99460.00;;;9.30;91.87
71567;BME280;59403;47.456;19.120;2023-04-02T04:18:49;99462.00;;;9.28;92.65
71567;BME280;59403;47.456;19.120;2023-04-02T04:28:43;99468.16;;;9.21;92.73
71567;BME280;59403;47.456;19.120;2023-04-02T04:38:39;99473.59;;;9.19;92.63
71567;BME280;59403;47.456;19.120;2023-04-02T04:42:10;99478.53;;;9.14;93.03
71567;BME280;59403;47.456;19.120;2023-04-02T06:29:05;99529.28;;;11.87;79.10
71567;BME280;59403;47.456;19.120;2023-04-02T06:31:37;99534.81;;;12.07;79.22
71567;BME280;59403;47.456;19.120;2023-04-02T06:34:14;99535.53;;;12.15;78.79
71567;BME280;59403;47.456;19.120;2023-04-02T06:36:41;99545.75;;;12.18;78.67
71567;BME280;59403;47.456;19.120;2023-04-02T06:39:16;99544.97;;;12.18;78.60
71567;BME280;59403;47.456;19.120;2023-04-02T06:41:44;99545.31;;;12.15;78.33
71567;BME280;59403;47.456;19.120;2023-04-02T06:44:15;99549.84;;;12.00;78.76
71567;BME280;59403;47.456;19.120;2023-04-02T06:46:46;99544.91;;;11.97;78.78
71567;BME280;59403;47.456;19.120;2023-04-02T06:49:18;99552.94;;;12.03;79.04
71567;BME280;59403;47.456;19.120;2023-04-02T06:51:48;99552.44;;;11.93;78.67
71567;BME280;59403;47.456;19.120;2023-04-02T06:54:18;99556.94;;;12.14;78.78
71567;BME280;59403;47.456;19.120;2023-04-02T06:56:46;99561.47;;;12.34;78.61
71567;BME280;59403;47.456;19.120;2023-04-02T06:59:15;99560.19;;;12.30;77.95
71567;BME280;59403;47.456;19.120;2023-04-02T07:01:46;99557.28;;;12.46;76.77
71567;BME280;59403;47.456;19.120;2023-04-02T07:04:14;99549.47;;;12.60;77.11
71567;BME280;59403;47.456;19.120;2023-04-02T07:06:41;99553.25;;;12.50;77.13
71567;BME280;59403;47.456;19.120;2023-04-02T07:09:08;99548.69;;;12.44;77.13
71567;BME280;59403;47.456;19.120;2023-04-02T07:11:35;99552.22;;;12.51;77.16
71567;BME280;59403;47.456;19.120;2023-04-02T07:14:02;99550.75;;;12.70;76.44
71567;BME280;59403;47.456;19.120;2023-04-02T07:16:31;99543.19;;;12.67;76.63
71567;BME280;59403;47.456;19.120;2023-04-02T07:19:01;99543.19;;;12.67;76.62
71567;BME280;59403;47.456;19.120;2023-04-02T07:21:28;99548.91;;;12.92;75.69
71567;BME280;59403;47.456;19.120;2023-04-02T07:23:55;99554.03;;;12.93;74.57
71567;BME280;59403;47.456;19.120;2023-04-02T07:26:24;99553.53;;;13.04;75.20
71567;BME280;59403;47.456;19.120;2023-04-02T07:28:52;99559.34;;;13.14;74.46
71567;BME280;59403;47.456;19.120;2023-04-02T07:31:22;99554.25;;;13.19;75.08
71567;BME280;59403;47.456;19.120;2023-04-02T07:33:53;99567.34;;;13.21;75.08
71567;BME280;59403;47.456;19.120;2023-04-02T07:36:22;99573.81;;;13.12;74.22
71567;BME280;59403;47.456;19.120;2023-04-02T07:38:49;99572.69;;;13.00;74.75
71567;BME280;59403;47.456;19.120;2023-04-02T07:41:16;99580.66;;;13.00;75.53
71567;BME280;59403;47.456;19.120;2023-04-02T07:43:44;99576.94;;;12.94;75.71
71567;BME280;59403;47.456;19.120;2023-04-02T07:46:12;99578.78;;;12.94;75.95
71567;BME280;59403;47.456;19.120;2023-04-02T07:48:41;99585.81;;;13.01;75.28
71567;BME280;59403;47.456;19.120;2023-04-02T07:51:16;99581.37;;;12.87;74.87
71567;BME280;59403;47.456;19.120;2023-04-02T07:53:43;99584.81;;;13.02;75.01
71567;BME280;59403;47.456;19.120;2023-04-02T07:56:15;99582.94;;;13.24;74.17
71567;BME280;59403;47.456;19.120;2023-04-02T07:58:43;99598.22;;;13.43;73.46
71567;BME280;59403;47.456;19.120;2023-04-02T08:01:15;99590.59;;;13.40;72.89
71567;BME280;59403;47.456;19.120;2023-04-02T08:03:42;99592.94;;;13.49;72.61
71567;BME280;59403;47.456;19.120;2023-04-02T08:06:09;99594.56;;;13.50;72.01
71567;BME280;59403;47.456;19.120;2023-04-02T08:08:38;99600.41;;;13.67;72.14
71567;BME280;59403;47.456;19.120;2023-04-02T08:11:05;99602.44;;;13.65;71.51
71567;BME280;59403;47.456;19.120;2023-04-02T08:13:32;99605.37;;;13.77;71.50
71567;BME280;59403;47.456;19.120;2023-04-02T08:16:00;99608.00;;;13.70;71.09
71567;BME280;59403;47.456;19.120;2023-04-02T08:18:27;99607.38;;;13.68;71.04
71567;BME280;59403;47.456;19.120;2023-04-02T08:20:55;99612.22;;;13.58;71.12
71567;BME280;59403;47.456;19.120;2023-04-02T08:23:22;99612.78;;;13.81;70.36
71567;BME280;59403;47.456;19.120;2023-04-02T08:25:51;99618.25;;;13.73;71.23
71567;BME280;59403;47.456;19.120;2023-04-02T08:28:18;99615.78;;;13.72;70.97
71567;BME280;59403;47.456;19.120;2023-04-02T08:30:46;99621.00;;;13.93;71.47
71567;BME280;59403;47.456;19.120;2023-04-02T08:33:14;99627.87;;;13.74;71.13
71567;BME280;59403;47.456;19.120;2023-04-02T08:35:42;99620.63;;;13.96;70.74
71567;BME280;59403;47.456;19.120;2023-04-02T08:38:12;99622.66;;;13.94;70.53
71567;BME280;59403;47.456;19.120;2023-04-02T08:40:41;99622.88;;;13.99;70.36
71567;BME280;59403;47.456;19.120;2023-04-02T08:43:22;99623.72;;;14.06;70.48
71567;BME280;59403;47.456;19.120;2023-04-02T08:46:03;99622.00;;;13.85;70.51
71567;BME280;59403;47.456;19.120;2023-04-02T08:48:32;99623.97;;;14.11;69.91
71567;BME280;59403;47.456;19.120;2023-04-02T08:51:00;99618.81;;;14.56;68.85
71567;BME280;59403;47.456;19.120;2023-04-02T08:53:31;99620.44;;;14.51;68.73
71567;BME280;59403;47.456;19.120;2023-04-02T08:56:03;99635.28;;;14.79;67.79
71567;BME280;59403;47.456;19.120;2023-04-02T08:58:39;99625.66;;;15.05;67.74
71567;BME280;59403;47.456;19.120;2023-04-02T09:01:16;99635.66;;;14.70;66.60
71567;BME280;59403;47.456;19.120;2023-04-02T09:03:47;99629.47;;;14.09;68.37
71567;BME280;59403;47.456;19.120;2023-04-02T09:06:17;99638.84;;;14.33;68.75
71567;BME280;59403;47.456;19.120;2023-04-02T09:08:46;99635.37;;;14.39;68.51
71567;BME280;59403;47.456;19.120;2023-04-02T09:11:21;99638.28;;;14.10;69.93
71567;BME280;59403;47.456;19.120;2023-04-02T09:13:54;99637.53;;;14.16;69.63
71567;BME280;59403;47.456;19.120;2023-04-02T09:16:33;99637.53;;;14.22;69.25
71567;BME280;59403;47.456;19.120;2023-04-02T09:19:13;99644.59;;;14.36;68.42
71567;BME280;59403;47.456;19.120;2023-04-02T09:21:42;99635.37;;;14.39;68.31
71567;BME280;59403;47.456;19.120;2023-04-02T09:24:11;99630.94;;;14.52;67.78
71567;BME280;59403;47.456;19.120;2023-04-02T09:26:38;99631.78;;;14.86;67.56
71567;BME280;59403;47.456;19.120;2023-04-02T09:29:24;99634.72;;;15.23;66.42
71567;BME280;59403;47.456;19.120;2023-04-02T09:31:58;99638.41;;;15.03;67.00
71567;BME280;59403;47.456;19.120;2023-04-02T09:34:30;99641.47;;;15.06;66.69
71567;BME280;59403;47.456;19.120;2023-04-02T09:37:06;99642.91;;;15.15;66.60
71567;BME280;59403;47.456;19.120;2023-04-02T09:39:33;99636.78;;;15.15;66.96
71567;BME280;59403;47.456;19.120;2023-04-02T09:42:05;99640.81;;;14.85;67.19
71567;BME280;59403;47.456;19.120;2023-04-02T09:44:33;99644.53;;;15.03;67.46
71567;BME280;59403;47.456;19.120;2023-04-02T09:47:03;99658.44;;;14.86;66.67
71567;BME280;59403;47.456;19.120;2023-04-02T09:49:31;99652.31;;;14.98;67.44
71567;BME280;59403;47.456;19.120;2023-04-02T09:52:17;99655.81;;;14.99;67.50
71567;BME280;59403;47.456;19.120;2023-04-02T09:54:45;99651.91;;;14.82;66.31
71567;BME280;59403;47.456;19.120;2023-04-02T09:57:19;99656.38;;;14.68;67.29
71567;BME280;59403;47.456;19.120;2023-04-02T10:00:14;99660.75;;;14.95;67.35
71567;BME280;59403;47.456;19.120;2023-04-02T10:02:43;99669.38;;;15.04;67.22
71567;BME280;59403;47.456;19.120;2023-04-02T10:05:17;99661.78;;;15.01;65.75
71567;BME280;59403;47.456;19.120;2023-04-02T10:07:46;99667.06;;;14.88;65.43
71567;BME280;59403;47.456;19.120;2023-04-02T10:10:20;99662.72;;;14.67;65.50
71567;BME280;59403;47.456;19.120;2023-04-02T10:12:51;99663.97;;;14.64;65.98
71567;BME280;59403;47.456;19.120;2023-04-02T10:15:28;99659.28;;;14.79;66.16
71567;BME280;59403;47.456;19.120;2023-04-02T10:18:02;99672.25;;;15.02;66.20
71567;BME280;59403;47.456;19.120;2023-04-02T10:20:34;99658.69;;;15.10;66.23
71567;BME280;59403;47.456;19.120;2023-04-02T10:23:04;99665.44;;;15.00;65.85
71567;BME280;59403;47.456;19.120;2023-04-02T10:25:56;99659.75;;;15.03;65.73
71567;BME280;59403;47.456;19.120;2023-04-02T10:28:38;99660.56;;;15.10;64.75
71567;BME280;59403;47.456;19.120;2023-04-02T10:31:13;99661.19;;;15.18;65.76
71567;BME280;59403;47.456;19.120;2023-04-02T10:33:46;99659.31;;;15.12;66.46
71567;BME280;59403;47.456;19.120;2023-04-02T10:36:23;99650.06;;;15.08;67.42
71567;BME280;59403;47.456;19.120;2023-04-02T10:38:58;99656.06;;;15.17;66.29
71567;BME280;59403;47.456;19.120;2023-04-02T10:41:30;99659.16;;;15.20;66.32
71567;BME280;59403;47.456;19.120;2023-04-02T10:44:08;99654.59;;;15.86;63.78
71567;BME280;59403;47.456;19.120;2023-04-02T10:46:49;99644.25;;;16.09;62.60
71567;BME280;59403;47.456;19.120;2023-04-02T10:49:26;99650.94;;;15.54;62.28
71567;BME280;59403;47.456;19.120;2023-04-02T10:51:59;99647.84;;;15.77;62.96
71567;BME280;59403;47.456;19.120;2023-04-02T10:54:36;99655.66;;;15.72;62.36
71567;BME280;59403;47.456;19.120;2023-04-02T10:57:11;99649.50;;;15.32;63.39
71567;BME280;59403;47.456;19.120;2023-04-02T10:59:44;99648.66;;;15.38;63.73
71567;BME280;59403;47.456;19.120;2023-04-02T11:02:28;99655.63;;;15.26;64.38
71567;BME280;59403;47.456;19.120;2023-04-02T11:05:02;99657.69;;;15.18;63.04
71567;BME280;59403;47.456;19.120;2023-04-02T11:07:42;99663.06;;;15.44;65.27
71567;BME280;59403;47.456;19.120;2023-04-02T11:10:14;99663.22;;;15.81;63.94
71567;BME280;59403;47.456;19.120;2023-04-02T11:12:49;99659.97;;;15.53;64.84
71567;BME280;59403;47.456;19.120;2023-04-02T11:15:18;99656.56;;;16.17;62.66
71567;BME280;59403;47.456;19.120;2023-04-02T11:17:47;99653.47;;;16.20;62.46
71567;BME280;59403;47.456;19.120;2023-04-02T11:23:37;99650.66;;;16.52;60.54
71567;BME280;59403;47.456;19.120;2023-04-02T11:26:36;99643.75;;;16.38;59.38
71567;BME280;59403;47.456;19.120;2023-04-02T11:29:14;99635.31;;;17.10;59.17
71567;BME280;59403;47.456;19.120;2023-04-02T11:31:43;99640.22;;;17.38;56.81
71567;BME280;59403;47.456;19.120;2023-04-02T11:37:35;99631.91;;;17.52;55.02
71567;BME280;59403;47.456;19.120;2023-04-02T11:42:49;99623.66;;;17.54;56.59
71567;BME280;59403;47.456;19.120;2023-04-02T11:48:28;99624.78;;;16.53;58.57
71567;BME280;59403;47.456;19.120;2023-04-02T11:50:56;99632.12;;;16.13;57.53
71567;BME280;59403;47.456;19.120;2023-04-02T11:53:28;99630.56;;;15.86;58.64
71567;BME280;59403;47.456;19.120;2023-04-02T11:56:07;99633.88;;;15.75;58.38
71567;BME280;59403;47.456;19.120;2023-04-02T11:58:48;99635.06;;;15.85;58.05
71567;BME280;59403;47.456;19.120;2023-04-02T12:04:34;99624.22;;;15.67;58.04
71567;BME280;59403;47.456;19.120;2023-04-02T12:07:27;99627.13;;;15.59;57.43
71567;BME280;59403;47.456;19.120;2023-04-02T12:10:02;99629.25;;;16.08;56.78
71567;BME280;59403;47.456;19.120;2023-04-02T12:12:33;99614.34;;;16.76;54.76
71567;BME280;59403;47.456;19.120;2023-04-02T12:15:02;99618.16;;;16.93;53.99
71567;BME280;59403;47.456;19.120;2023-04-02T12:17:31;99608.91;;;16.89;54.83
71567;BME280;59403;47.456;19.120;2023-04-02T12:20:02;99611.59;;;17.14;54.25
71567;BME280;59403;47.456;19.120;2023-04-02T12:22:34;99611.66;;;17.07;52.10
71567;BME280;59403;47.456;19.120;2023-04-02T12:25:06;99606.59;;;17.48;53.53
71567;BME280;59403;47.456;19.120;2023-04-02T12:27:45;99609.59;;;17.34;51.91
71567;BME280;59403;47.456;19.120;2023-04-02T12:30:18;99607.56;;;17.54;52.21
71567;BME280;59403;47.456;19.120;2023-04-02T12:32:45;99605.66;;;17.36;50.10
71567;BME280;59403;47.456;19.120;2023-04-02T12:35:27;99603.28;;;17.71;50.29
71567;BME280;59403;47.456;19.120;2023-04-02T12:37:54;99599.94;;;18.11;49.32
71567;BME280;59403;47.456;19.120;2023-04-02T12:40:24;99592.13;;;18.10;48.44
71567;BME280;59403;47.456;19.120;2023-04-02T12:42:51;99587.56;;;18.47;49.89
71567;BME280;59403;47.456;19.120;2023-04-02T12:45:23;99582.34;;;18.34;49.64
71567;BME280;59403;47.456;19.120;2023-04-02T12:47:50;99581.44;;;18.40;49.68
71567;BME280;59403;47.456;19.120;2023-04-02T12:50:18;99576.00;;;18.46;47.65
71567;BME280;59403;47.456;19.120;2023-04-02T12:52:49;99586.38;;;18.72;46.23
71567;BME280;59403;47.456;19.120;2023-04-02T12:55:19;99586.38;;;18.43;48.13
71567;BME280;59403;47.456;19.120;2023-04-02T12:57:48;99584.22;;;17.61;50.07
71567;BME280;59403;47.456;19.120;2023-04-02T13:00:30;99592.34;;;17.72;49.70
71567;BME280;59403;47.456;19.120;2023-04-02T13:03:19;99583.88;;;17.75;48.63
71567;BME280;59403;47.456;19.120;2023-04-02T13:05:52;99588.19;;;17.76;49.06
71567;BME280;59403;47.456;19.120;2023-04-02T13:08:22;99589.06;;;17.03;50.61
71567;BME280;59403;47.456;19.120;2023-04-02T13:10:55;99592.25;;;16.56;51.55
71567;BME280;59403;47.456;19.120;2023-04-02T13:13:28;99589.78;;;16.17;53.63
71567;BME280;59403;47.456;19.120;2023-04-02T13:16:18;99591.13;;;15.81;55.28
71567;BME280;59403;47.456;19.120;2023-04-02T13:18:49;99597.31;;;15.75;57.34
71567;BME280;59403;47.456;19.120;2023-04-02T13:21:24;99599.41;;;15.67;57.90
71567;BME280;59403;47.456;19.120;2023-04-02T13:23:52;99588.31;;;16.21;57.08
71567;BME280;59403;47.456;19.120;2023-04-02T13:26:21;99591.22;;;16.88;55.17
71567;BME280;59403;47.456;19.120;2023-04-02T13:29:00;99593.78;;;17.01;54.62
71567;BME280;59403;47.456;19.120;2023-04-02T13:31:29;99584.25;;;17.12;55.28
71567;BME280;59403;47.456;19.120;2023-04-02T13:33:57;99598.78;;;17.22;53.80
71567;BME280;59403;47.456;19.120;2023-04-02T13:36:24;99593.94;;;17.13;53.70
71567;BME280;59403;47.456;19.120;2023-04-02T13:38:53;99593.81;;;16.70;54.59
71567;BME280;59403;47.456;19.120;2023-04-02T13:41:23;99596.41;;;16.52;54.88
71567;BME280;59403;47.456;19.120;2023-04-02T13:43:51;99596.31;;;16.27;55.17
71567;BME280;59403;47.456;19.120;2023-04-02T13:46:22;99594.69;;;16.20;56.13
71567;BME280;59403;47.456;19.120;2023-04-02T13:48:50;99596.63;;;16.00;56.28
71567;BME280;59403;47.456;19.120;2023-04-02T13:51:19;99591.56;;;15.72;57.13
71567;BME280;59403;47.456;19.120;2023-04-02T13:53:51;99603.75;;;15.55;56.57
71567;BME280;59403;47.456;19.120;2023-04-02T13:56:19;99607.25;;;15.42;56.44
71567;BME280;59403;47.456;19.120;2023-04-02T13:58:48;99597.13;;;15.38;57.67
71567;BME280;59403;47.456;19.120;2023-04-02T14:01:15;99595.13;;;15.40;57.64
71567;BME280;59403;47.456;19.120;2023-04-02T14:03:44;99598.13;;;15.69;57.72
71567;BME280;59403;47.456;19.120;2023-04-02T14:06:15;99600.72;;;16.02;57.00
71567;BME280;59403;47.456;19.120;2023-04-02T14:08:53;99593.09;;;16.06;55.28
71567;BME280;59403;47.456;19.120;2023-04-02T14:11:30;99593.31;;;16.04;53.66
71567;BME280;59403;47.456;19.120;2023-04-02T14:14:19;99585.25;;;16.17;52.28
71567;BME280;59403;47.456;19.120;2023-04-02T14:16:52;99586.84;;;16.31;50.58
71567;BME280;59403;47.456;19.120;2023-04-02T14:19:32;99584.00;;;16.26;49.65
71567;BME280;59403;47.456;19.120;2023-04-02T14:22:14;99594.69;;;16.26;49.96
71567;BME280;59403;47.456;19.120;2023-04-02T14:24:53;99588.53;;;16.19;51.46
71567;BME280;59403;47.456;19.120;2023-04-02T14:27:28;99594.69;;;16.26;52.55
71567;BME280;59403;47.456;19.120;2023-04-02T14:30:03;99592.31;;;16.43;53.86
71567;BME280;59403;47.456;19.120;2023-04-02T14:32:36;99593.84;;;16.26;53.97
71567;BME280;59403;47.456;19.120;2023-04-02T14:35:13;99601.00;;;16.32;55.08
71567;BME280;59403;47.456;19.120;2023-04-02T14:37:50;99600.78;;;16.33;54.79
71567;BME280;59403;47.456;19.120;2023-04-02T14:40:23;99597.31;;;16.33;54.79
71567;BME280;59403;47.456;19.120;2023-04-02T14:42:57;99607.16;;;16.32;56.46
71567;BME280;59403;47.456;19.120;2023-04-02T14:45:42;99606.44;;;16.12;55.21
71567;BME280;59403;47.456;19.120;2023-04-02T14:48:23;99611.47;;;15.82;54.73
71567;BME280;59403;47.456;19.120;2023-04-02T14:50:57;99628.16;;;15.65;56.67
71567;BME280;59403;47.456;19.120;2023-04-02T14:53:28;99628.34;;;15.57;58.78
71567;BME280;59403;47.456;19.120;2023-04-02T14:55:58;99629.59;;;15.54;59.06
71567;BME280;59403;47.456;19.120;2023-04-02T14:58:32;99641.50;;;15.52;60.23
71567;BME280;59403;47.456;19.120;2023-04-02T15:01:01;99642.91;;;15.02;59.74
71567;BME280;59403;47.456;19.120;2023-04-02T15:03:32;99663.78;;;14.72;59.69
71567;BME280;59403;47.456;19.120;2023-04-02T15:06:04;99662.50;;;14.62;60.62
71567;BME280;59403;47.456;19.120;2023-04-02T15:08:36;99680.78;;;14.71;61.58
71567;BME280;59403;47.456;19.120;2023-04-02T15:11:07;99684.59;;;14.49;62.12
71567;BME280;59403;47.456;19.120;2023-04-02T15:13:40;99681.09;;;14.08;63.80
71567;BME280;59403;47.456;19.120;2023-04-02T15:16:12;99690.13;;;14.07;63.93
71567;BME280;59403;47.456;19.120;2023-04-02T15:18:41;99661.00;;;13.72;66.33
71567;BME280;59403;47.456;19.120;2023-04-02T15:21:40;99701.75;;;13.72;67.74
71567;BME280;59403;47.456;19.120;2023-04-02T15:24:15;99696.84;;;13.69;68.80
71567;BME280;59403;47.456;19.120;2023-04-02T15:26:52;99709.38;;;13.54;70.69
71567;BME280;59403;47.456;19.120;2023-04-02T15:29:33;99713.28;;;13.30;71.83
71567;BME280;59403;47.456;19.120;2023-04-02T15:32:21;99725.38;;;13.12;71.04
71567;BME280;59403;47.456;19.120;2023-04-02T15:34:52;99731.56;;;12.98;72.40
71567;BME280;59403;47.456;19.120;2023-04-02T15:37:29;99737.16;;;12.88;76.85
71567;BME280;59403;47.456;19.120;2023-04-02T15:40:06;99738.53;;;12.48;82.92
71567;BME280;59403;47.456;19.120;2023-04-02T15:42:45;99759.41;;;12.37;80.60
71567;BME280;59403;47.456;19.120;2023-04-02T15:45:23;99759.50;;;12.14;81.49
71567;BME280;59403;47.456;19.120;2023-04-02T15:48:20;99753.72;;;11.96;83.92
71567;BME280;59403;47.456;19.120;2023-04-02T15:50:59;99750.69;;;11.99;85.27
71567;BME280;59403;47.456;19.120;2023-04-02T15:53:44;99748.03;;;11.99;88.39
71567;BME280;59403;47.456;19.120;2023-04-02T15:56:21;99746.94;;;11.94;92.00
71567;BME280;59403;47.456;19.120;2023-04-02T16:01:50;99743.72;;;11.69;99.38
71567;BME280;59403;47.456;19.120;2023-04-02T16:04:37;99741.59;;;11.65;98.82
71567;BME280;59403;47.456;19.120;2023-04-02T16:07:23;99732.78;;;11.64;100.00
71567;BME280;59403;47.456;19.120;2023-04-02T16:09:59;99743.72;;;11.69;100.00
71567;BME280;59403;47.456;19.120;2023-04-02T16:12:32;99738.22;;;11.71;100.00
71567;BME280;59403;47.456;19.120;2023-04-02T16:15:10;99735.19;;;11.74;100.00
71567;BME280;59403;47.456;19.120;2023-04-02T16:17:42;99740.41;;;11.82;100.00
71567;BME280;59403;47.456;19.120;2023-04-02T16:20:20;99738.50;;;11.90;100.00
71567;BME280;59403;47.456;19.120;2023-04-02T16:22:53;99732.31;;;11.98;100.00
71567;BME280;59403;47.456;19.120;2023-04-02T16:25:24;99730.75;;;12.03;100.00
71567;BME280;59403;47.456;19.120;2023-04-02T16:28:04;99728.91;;;12.18;99.79
71567;BME280;59403;47.456;19.120;2023-04-02T16:30:40;99732.50;;;12.40;100.00
71567;BME280;59403;47.456;19.120;2023-04-02T16:33:20;99735.94;;;12.55;100.00
71567;BME280;59403;47.456;19.120;2023-04-02T16:36:01;99743.81;;;12.63;98.74
71567;BME280;59403;47.456;19.120;2023-04-02T16:38:40;99745.53;;;12.71;97.62
71567;BME280;59403;47.456;19.120;2023-04-02T16:41:18;99749.72;;;12.80;96.81
71567;BME280;59403;47.456;19.120;2023-04-02T16:43:54;99764.13;;;12.85;93.20
71567;BME280;59403;47.456;19.120;2023-04-02T16:46:29;99767.88;;;12.76;94.22
71567;BME280;59403;47.456;19.120;2023-04-02T16:49:05;99784.06;;;12.45;97.37
71567;BME280;59403;47.456;19.120;2023-04-02T16:51:39;99787.97;;;12.35;100.00
71567;BME280;59403;47.456;19.120;2023-04-02T16:54:14;99792.06;;;12.08;97.94
71567;BME280;59403;47.456;19.120;2023-04-02T16:56:53;99794.75;;;12.23;97.30
71567;BME280;59403;47.456;19.120;2023-04-02T16:59:33;99791.81;;;12.18;99.68
71567;BME280;59403;47.456;19.120;2023-04-02T17:02:03;99794.28;;;12.19;100.00
71567;BME280;59403;47.456;19.120;2023-04-02T17:04:49;99790.34;;;12.15;96.49
71567;BME280;59403;47.456;19.120;2023-04-02T17:07:37;99799.31;;;12.14;97.26
71567;BME280;59403;47.456;19.120;2023-04-02T17:10:29;99802.69;;;12.08;99.81
71567;BME280;59403;47.456;19.120;2023-04-02T17:13:02;99803.13;;;11.97;100.00
71567;BME280;59403;47.456;19.120;2023-04-02T17:15:36;99802.75;;;11.86;100.00
71567;BME280;59403;47.456;19.120;2023-04-02T17:18:10;99808.69;;;11.88;100.00
71567;BME280;59403;47.456;19.120;2023-04-02T17:20:40;99816.94;;;11.93;100.00
71567;BME280;59403;47.456;19.120;2023-04-02T17:23:10;99819.81;;;11.83;100.00
71567;BME280;59403;47.456;19.120;2023-04-02T17:25:45;99820.38;;;11.79;100.00
71567;BME280;59403;47.456;19.120;2023-04-02T17:28:19;99818.13;;;11.68;100.00
71567;BME280;59403;47.456;19.120;2023-04-02T17:33:17;99830.50;;;11.53;100.00
71567;BME280;59403;47.456;19.120;2023-04-02T17:35:54;99836.66;;;11.45;100.00
71567;BME280;59403;47.456;19.120;2023-04-02T17:38:31;99842.97;;;11.44;98.55
71567;BME280;59403;47.456;19.120;2023-04-02T17:41:07;99838.69;;;11.43;97.20
71567;BME280;59403;47.456;19.120;2023-04-02T17:43:44;99838.34;;;11.46;87.26
71567;BME280;59403;47.456;19.120;2023-04-02T17:46:19;99846.66;;;11.43;88.68
71567;BME280;59403;47.456;19.120;2023-04-02T17:48:55;99848.37;;;11.28;87.38
71567;BME280;59403;47.456;19.120;2023-04-02T17:51:32;99851.22;;;11.26;83.08
71567;BME280;59403;47.456;19.120;2023-04-02T17:54:11;99859.03;;;11.20;80.10
71567;BME280;59403;47.456;19.120;2023-04-02T17:56:59;99862.03;;;11.17;80.42
71567;BME280;59403;47.456;19.120;2023-04-02T17:59:40;99867.38;;;11.09;81.05
71567;BME280;59403;47.456;19.120;2023-04-02T18:02:25;99868.91;;;10.95;79.11
71567;BME280;59403;47.456;19.120;2023-04-02T18:04:59;99869.28;;;10.92;80.87
71567;BME280;59403;47.456;19.120;2023-04-02T18:07:35;99877.72;;;10.88;78.38
71567;BME280;59403;47.456;19.120;2023-04-02T18:10:13;99891.50;;;10.83;79.72
71567;BME280;59403;47.456;19.120;2023-04-02T18:12:50;99888.56;;;10.70;78.24
71567;BME280;59403;47.456;19.120;2023-04-02T18:15:54;99899.31;;;10.69;79.92
71567;BME280;59403;47.456;19.120;2023-04-02T18:18:49;99900.47;;;10.58;79.55
71567;BME280;59403;47.456;19.120;2023-04-02T18:21:23;99903.97;;;10.59;79.41
71567;BME280;59403;47.456;19.120;2023-04-02T18:24:10;99916.72;;;10.55;79.55
71567;BME280;59403;47.456;19.120;2023-04-02T18:26:46;99913.72;;;10.58;80.07
71567;BME280;59403;47.456;19.120;2023-04-02T18:29:24;99920.53;;;10.53;79.91
71567;BME280;59403;47.456;19.120;2023-04-02T18:32:03;99920.38;;;10.38;79.70
71567;BME280;59403;47.456;19.120;2023-04-02T18:34:59;99929.66;;;10.42;80.99
71567;BME280;59403;47.456;19.120;2023-04-02T18:37:37;99925.84;;;10.45;79.75